Time;durP1;ratioP1;P1;durP2;ratioP2;P2;SDS_P1;SDS_P2;PMS_P1;PMS_P2;Temp;Humidity;BMP_temperature;BMP_pressure;BME280_temperature;BME280_humidity;BME280_pressure;Samples;Min_cycle;Max_cycle;Signal;HPM_P1;HPM_P2
2023/08/14 00:00:03;;;;;;;4.75;2.60;;;;;;;;;;5022541;28;20029;-79
2023/08/14 00:02:28;;;;;;;10.45;2.72;;;;;;;;;;5027618;28;20046;-84
2023/08/14 00:04:57;;;;;;;8.35;3.08;;;;;;;;;;5011869;28;20029;-81
2023/08/14 00:07:25;;;;;;;5.63;2.78;;;;;;;;;;5010695;28;20026;-85
2023/08/14 00:09:53;;;;;;;6.72;2.35;;;;;;;;;;5008926;28;20117;-81
2023/08/14 00:12:19;;;;;;;8.05;2.88;;;;;;;;;;5012252;28;20025;-85
2023/08/14 00:14:47;;;;;;;9.18;2.80;;;;;;;;;;5009621;28;20045;-81
2023/08/14 00:17:16;;;;;;;7.05;2.78;;;;;;;;;;5012054;28;20465;-83
2023/08/14 00:19:42;;;;;;;6.63;2.78;;;;;;;;;;5017777;28;20061;-81
2023/08/14 00:22:08;;;;;;;6.75;2.97;;;;;;;;;;5030761;28;20064;-85
2023/08/14 00:24:34;;;;;;;12.25;3.30;;;;;;;;;;5020304;28;20042;-78
2023/08/14 00:27:02;;;;;;;7.72;2.70;;;;;;;;;;5013118;28;20085;-84
2023/08/14 00:29:28;;;;;;;9.27;3.58;;;;;;;;;;5028777;28;20040;-77
2023/08/14 00:31:54;;;;;;;11.63;3.15;;;;;;;;;;5016141;28;20034;-80
2023/08/14 00:34:23;;;;;;;5.85;2.38;;;;;;;;;;5017299;28;20105;-79
2023/08/14 00:36:49;;;;;;;7.45;2.75;;;;;;;;;;5015716;28;20045;-80
2023/08/14 00:39:15;;;;;;;6.40;2.75;;;;;;;;;;5022277;28;20027;-82
2023/08/14 00:41:41;;;;;;;5.43;2.75;;;;;;;;;;5020763;28;20041;-77
2023/08/14 00:44:07;;;;;;;5.55;2.50;;;;;;;;;;5043184;28;20038;-79
2023/08/14 00:46:36;;;;;;;7.82;2.60;;;;;;;;;;5040000;28;20050;-77
2023/08/14 00:49:02;;;;;;;6.60;2.10;;;;;;;;;;5037979;28;20041;-78
2023/08/14 00:51:31;;;;;;;12.90;3.30;;;;;;;;;;5020912;28;20029;-81
2023/08/14 00:53:57;;;;;;;7.25;2.58;;;;;;;;;;5036891;28;20037;-83
2023/08/14 00:56:23;;;;;;;13.98;3.00;;;;;;;;;;5036149;28;20044;-78
2023/08/14 00:58:52;;;;;;;5.57;2.78;;;;;;;;;;5034034;28;20034;-81
2023/08/14 01:01:18;;;;;;;7.65;2.42;;;;;;;;;;5021121;28;20030;-78
2023/08/14 01:03:44;;;;;;;7.95;2.60;;;;;;;;;;5019383;28;20129;-79
2023/08/14 01:06:10;;;;;;;6.43;2.40;;;;;;;;;;5042406;28;20062;-82
2023/08/14 01:08:36;;;;;;;11.00;2.80;;;;;;;;;;5035047;28;20057;-82
2023/08/14 01:11:07;;;;;;;8.07;2.60;;;;;;;;;;5022380;28;20018;-75
2023/08/14 01:13:51;;;;;;;9.25;2.40;;;;;;;;;;5035605;28;20061;-77
2023/08/14 01:16:23;;;;;;;4.65;2.70;;;;;;;;;;5030549;28;20026;-77
2023/08/14 01:18:52;;;;;;;9.88;2.58;;;;;;;;;;5034389;28;20223;-73
2023/08/14 01:21:20;;;;;;;9.48;3.17;;;;;;;;;;5030745;28;20145;-75
2023/08/14 01:24:11;;;;;;;6.95;2.40;;;;;;;;;;5048671;28;20090;-74
2023/08/14 01:26:37;;;;;;;10.90;3.33;;;;;;;;;;5031045;28;20038;-73
2023/08/14 01:29:03;;;;;;;4.88;1.98;;;;;;;;;;5036119;28;20034;-77
2023/08/14 01:31:34;;;;;;;6.28;2.50;;;;;;;;;;5035571;28;20101;-73
2023/08/14 01:34:02;;;;;;;10.52;2.80;;;;;;;;;;5046663;28;20112;-78
2023/08/14 01:36:35;;;;;;;7.65;2.88;;;;;;;;;;5032419;28;20010;-74
2023/08/14 01:39:09;;;;;;;6.25;2.75;;;;;;;;;;5051727;28;20048;-74
2023/08/14 01:41:50;;;;;;;7.82;2.70;;;;;;;;;;5050851;28;20021;-73
2023/08/14 01:44:18;;;;;;;5.68;1.95;;;;;;;;;;5036502;28;20088;-74
2023/08/14 01:46:45;;;;;;;5.18;2.22;;;;;;;;;;5052278;28;20030;-74
2023/08/14 01:49:15;;;;;;;8.70;2.85;;;;;;;;;;5050579;28;20018;-73
2023/08/14 01:51:41;;;;;;;7.15;2.80;;;;;;;;;;5036333;28;20029;-73
2023/08/14 01:54:07;;;;;;;6.00;2.90;;;;;;;;;;5035468;28;20022;-73
2023/08/14 01:56:33;;;;;;;6.53;2.60;;;;;;;;;;5040277;28;20033;-73
2023/08/14 01:58:59;;;;;;;4.88;2.17;;;;;;;;;;5038174;28;20033;-73
2023/08/14 02:01:27;;;;;;;4.40;2.35;;;;;;;;;;5039232;28;20041;-73
2023/08/14 02:03:53;;;;;;;6.78;2.25;;;;;;;;;;5038764;28;20022;-73
2023/08/14 02:06:19;;;;;;;5.20;2.72;;;;;;;;;;5054971;28;20036;-72
2023/08/14 02:08:45;;;;;;;6.47;2.67;;;;;;;;;;5039544;28;20028;-73
2023/08/14 02:11:11;;;;;;;7.63;2.58;;;;;;;;;;5039867;28;20097;-73
2023/08/14 02:13:37;;;;;;;6.28;2.80;;;;;;;;;;5039962;28;20022;-73
2023/08/14 02:16:06;;;;;;;7.57;2.30;;;;;;;;;;5039575;28;20025;-73
2023/08/14 02:18:32;;;;;;;8.35;2.80;;;;;;;;;;5039952;28;20037;-73
2023/08/14 02:20:58;;;;;;;7.05;2.60;;;;;;;;;;5038564;28;20010;-73
2023/08/14 02:23:24;;;;;;;12.10;2.53;;;;;;;;;;5039234;28;20030;-73
2023/08/14 02:25:50;;;;;;;8.07;2.45;;;;;;;;;;5053802;28;20022;-72
2023/08/14 02:28:18;;;;;;;5.30;2.30;;;;;;;;;;5052461;28;20032;-73
2023/08/14 02:30:44;;;;;;;8.25;2.40;;;;;;;;;;5039967;28;20013;-72
2023/08/14 02:33:10;;;;;;;7.05;1.98;;;;;;;;;;5039942;28;20025;-74
2023/08/14 02:35:37;;;;;;;13.10;3.17;;;;;;;;;;5037420;28;20034;-73
2023/08/14 02:38:04;;;;;;;9.02;2.78;;;;;;;;;;5040163;28;20041;-72
2023/08/14 02:40:30;;;;;;;8.23;2.50;;;;;;;;;;5039359;28;20077;-73
2023/08/14 02:43:02;;;;;;;8.10;2.50;;;;;;;;;;5036706;28;20034;-73
2023/08/14 02:45:30;;;;;;;4.22;2.08;;;;;;;;;;5037389;28;20018;-72
2023/08/14 02:47:56;;;;;;;7.43;2.70;;;;;;;;;;5034745;28;20026;-73
2023/08/14 02:50:22;;;;;;;6.78;2.80;;;;;;;;;;5037980;28;20025;-73
2023/08/14 02:52:49;;;;;;;5.90;2.65;;;;;;;;;;5039031;28;20607;-73
2023/08/14 02:55:15;;;;;;;5.40;2.00;;;;;;;;;;5039613;28;20077;-73
2023/08/14 02:57:41;;;;;;;5.45;2.35;;;;;;;;;;5037585;28;20017;-73
2023/08/14 03:00:10;;;;;;;4.10;2.10;;;;;;;;;;5041067;28;20022;-72
2023/08/14 03:02:36;;;;;;;4.82;2.45;;;;;;;;;;5052934;28;20040;-73
2023/08/14 03:05:04;;;;;;;6.65;3.30;;;;;;;;;;5036520;28;20014;-73
2023/08/14 03:07:30;;;;;;;7.53;2.65;;;;;;;;;;5037724;28;20065;-74
2023/08/14 03:09:56;;;;;;;5.78;2.25;;;;;;;;;;5036919;28;20018;-73
2023/08/14 03:12:24;;;;;;;5.60;3.03;;;;;;;;;;5040952;28;20032;-73
2023/08/14 03:14:50;;;;;;;7.18;2.47;;;;;;;;;;5038669;28;20010;-73
2023/08/14 03:17:16;;;;;;;5.60;2.47;;;;;;;;;;5041665;28;20082;-73
2023/08/14 03:19:45;;;;;;;10.88;3.08;;;;;;;;;;5038428;28;20076;-73
2023/08/14 03:22:11;;;;;;;5.13;2.22;;;;;;;;;;5039496;28;20030;-73
2023/08/14 03:24:37;;;;;;;6.00;2.58;;;;;;;;;;5036134;28;20040;-73
2023/08/14 03:27:03;;;;;;;5.90;2.42;;;;;;;;;;5038023;28;20010;-72
2023/08/14 03:29:29;;;;;;;6.53;2.75;;;;;;;;;;5039581;28;20453;-73
2023/08/14 03:31:55;;;;;;;5.57;2.05;;;;;;;;;;5036189;28;20036;-73
2023/08/14 03:34:21;;;;;;;4.68;2.05;;;;;;;;;;5053381;28;20014;-74
2023/08/14 03:36:49;;;;;;;5.97;2.25;;;;;;;;;;5053145;28;20144;-73
2023/08/14 03:39:15;;;;;;;9.32;2.65;;;;;;;;;;5050488;28;20085;-73
2023/08/14 03:41:44;;;;;;;6.07;2.13;;;;;;;;;;5053619;28;20034;-72
2023/08/14 03:44:10;;;;;;;7.07;2.50;;;;;;;;;;5037254;28;20037;-72
2023/08/14 03:46:36;;;;;;;6.57;2.67;;;;;;;;;;5052041;28;20052;-73
2023/08/14 03:49:02;;;;;;;9.93;3.10;;;;;;;;;;5038610;28;20041;-72
2023/08/14 03:51:28;;;;;;;7.15;2.35;;;;;;;;;;5037743;28;20040;-73
2023/08/14 03:53:54;;;;;;;7.63;2.55;;;;;;;;;;5037864;28;20026;-73
2023/08/14 03:56:20;;;;;;;16.92;2.90;;;;;;;;;;5037169;28;20018;-73
2023/08/14 03:58:46;;;;;;;8.32;2.80;;;;;;;;;;5040052;28;20703;-73
2023/08/14 04:01:12;;;;;;;4.50;2.42;;;;;;;;;;5038356;28;20022;-73
2023/08/14 04:03:38;;;;;;;5.50;2.05;;;;;;;;;;5038026;28;20034;-73
2023/08/14 04:06:06;;;;;;;10.80;3.00;;;;;;;;;;5053655;28;20030;-73
2023/08/14 04:08:32;;;;;;;6.25;2.65;;;;;;;;;;5038440;28;20081;-72
2023/08/14 04:11:00;;;;;;;3.35;2.35;;;;;;;;;;5034854;28;20082;-73
2023/08/14 04:13:26;;;;;;;5.03;2.60;;;;;;;;;;5037930;28;20025;-73
2023/08/14 04:15:59;;;;;;;9.32;2.92;;;;;;;;;;5036989;28;20014;-73
2023/08/14 04:18:25;;;;;;;;;;;;;;;;;;5051587;28;20026;-73
2023/08/14 04:20:53;;;;;;;4.55;2.30;;;;;;;;;;5052891;28;19901;-73
2023/08/14 04:23:19;;;;;;;10.45;3.10;;;;;;;;;;5038566;28;20049;-72
2023/08/14 04:25:46;;;;;;;5.30;2.42;;;;;;;;;;5036307;28;21171;-72
2023/08/14 04:28:14;;;;;;;6.97;3.00;;;;;;;;;;5036671;28;20049;-72
2023/08/14 04:30:42;;;;;;;9.93;2.80;;;;;;;;;;5037332;28;20018;-73
2023/08/14 04:33:09;;;;;;;12.95;3.28;;;;;;;;;;5035081;28;20085;-73
2023/08/14 04:35:37;;;;;;;6.68;2.53;;;;;;;;;;5035206;28;20025;-73
2023/08/14 04:38:05;;;;;;;7.32;2.55;;;;;;;;;;5051713;28;20029;-73
2023/08/14 04:40:31;;;;;;;6.15;2.47;;;;;;;;;;5036291;28;20009;-73
2023/08/14 04:42:57;;;;;;;12.50;3.05;;;;;;;;;;5035613;28;20034;-73
2023/08/14 04:45:23;;;;;;;7.53;2.70;;;;;;;;;;5035067;28;20072;-73
2023/08/14 04:48:05;;;;;;;8.85;3.00;;;;;;;;;;5036558;28;20225;-73
2023/08/14 04:50:31;;;;;;;3.90;2.30;;;;;;;;;;5040041;28;20084;-73
2023/08/14 04:52:57;;;;;;;9.68;3.10;;;;;;;;;;5049741;28;20264;-72
2023/08/14 04:55:23;;;;;;;8.60;3.38;;;;;;;;;;5033540;28;20033;-72
2023/08/14 04:57:50;;;;;;;8.20;2.85;;;;;;;;;;5037401;28;20021;-74
2023/08/14 05:00:16;;;;;;;8.77;2.88;;;;;;;;;;5034338;28;20033;-73
2023/08/14 05:02:42;;;;;;;6.53;2.97;;;;;;;;;;5052121;28;20025;-73
2023/08/14 05:05:08;;;;;;;12.23;3.92;;;;;;;;;;5051756;28;20017;-73
2023/08/14 05:07:34;;;;;;;7.22;3.30;;;;;;;;;;5048695;28;20039;-73
2023/08/14 05:10:00;;;;;;;7.75;3.50;;;;;;;;;;5035042;28;20037;-73
2023/08/14 05:12:28;;;;;;;6.28;3.33;;;;;;;;;;5037174;28;20130;-72
2023/08/14 05:14:54;;;;;;;12.57;3.35;;;;;;;;;;5035578;28;20010;-73
2023/08/14 05:17:20;;;;;;;9.73;3.58;;;;;;;;;;5037401;28;20041;-73
2023/08/14 05:19:48;;;;;;;10.75;3.58;;;;;;;;;;5035273;28;20025;-72
2023/08/14 05:22:15;;;;;;;8.38;3.38;;;;;;;;;;5040101;28;20049;-73
2023/08/14 05:24:41;;;;;;;10.20;4.10;;;;;;;;;;5036084;28;20037;-73
2023/08/14 05:27:07;;;;;;;11.38;3.60;;;;;;;;;;5036867;28;20093;-73
2023/08/14 05:29:33;;;;;;;6.80;3.10;;;;;;;;;;5053405;28;20041;-72
2023/08/14 05:32:00;;;;;;;7.30;3.40;;;;;;;;;;5052514;28;20029;-73
2023/08/14 05:34:25;;;;;;;9.98;3.90;;;;;;;;;;5040362;28;20036;-72
2023/08/14 05:36:51;;;;;;;13.77;4.00;;;;;;;;;;5056055;28;20034;-73
2023/08/14 05:39:18;;;;;;;9.10;3.60;;;;;;;;;;5052303;28;20014;-73
2023/08/14 05:41:44;;;;;;;7.07;3.42;;;;;;;;;;5038666;28;20041;-72
2023/08/14 05:44:10;;;;;;;10.05;3.70;;;;;;;;;;5041086;28;20064;-72
2023/08/14 05:46:36;;;;;;;5.53;3.00;;;;;;;;;;5039650;28;20080;-73
2023/08/14 05:49:04;;;;;;;10.88;3.28;;;;;;;;;;5039890;28;20029;-73
2023/08/14 05:51:30;;;;;;;9.43;3.20;;;;;;;;;;5039377;28;20036;-73
2023/08/14 05:53:56;;;;;;;7.65;3.63;;;;;;;;;;5039477;28;20082;-73
2023/08/14 05:56:22;;;;;;;13.40;3.40;;;;;;;;;;5041486;28;20147;-73
2023/08/14 05:58:48;;;;;;;8.10;3.72;;;;;;;;;;5040745;28;20025;-74
2023/08/14 06:01:19;;;;;;;12.63;3.67;;;;;;;;;;5050420;28;20093;-76
2023/08/14 06:03:45;;;;;;;14.48;3.67;;;;;;;;;;5036144;28;20034;-77
2023/08/14 06:06:11;;;;;;;8.52;3.58;;;;;;;;;;5048954;28;20123;-80
2023/08/14 06:08:37;;;;;;;9.52;3.65;;;;;;;;;;5028223;28;20044;-77
2023/08/14 06:11:05;;;;;;;9.13;3.05;;;;;;;;;;5027114;28;20030;-77
2023/08/14 06:13:31;;;;;;;9.25;3.38;;;;;;;;;;5019214;28;20044;-83
2023/08/14 06:16:00;;;;;;;8.32;2.88;;;;;;;;;;5020367;28;20030;-80
2023/08/14 06:18:26;;;;;;;12.05;3.45;;;;;;;;;;5031363;28;20045;-83
2023/08/14 06:20:52;;;;;;;13.75;4.00;;;;;;;;;;5016237;28;20026;-78
2023/08/14 06:23:20;;;;;;;6.40;2.85;;;;;;;;;;5012482;28;20061;-82
2023/08/14 06:25:48;;;;;;;10.13;3.92;;;;;;;;;;5010205;28;20038;-81
2023/08/14 06:28:17;;;;;;;14.25;3.67;;;;;;;;;;5011565;28;20026;-83
2023/08/14 06:30:43;;;;;;;7.55;2.78;;;;;;;;;;5007068;28;20033;-80
2023/08/14 06:33:09;;;;;;;8.38;2.72;;;;;;;;;;5011662;28;20037;-86
2023/08/14 06:35:35;;;;;;;11.68;3.20;;;;;;;;;;5028947;28;20036;-87
2023/08/14 06:38:01;;;;;;;13.25;3.25;;;;;;;;;;5013839;28;20033;-84
2023/08/14 06:40:27;;;;;;;6.90;2.63;;;;;;;;;;5007631;28;20762;-86
2023/08/14 06:42:55;;;;;;;10.10;3.03;;;;;;;;;;5024275;28;20179;-84
2023/08/14 06:45:21;;;;;;;6.90;2.30;;;;;;;;;;5011986;28;20026;-86
2023/08/14 06:47:50;;;;;;;8.07;2.30;;;;;;;;;;5030918;28;20052;-84
2023/08/14 06:50:16;;;;;;;9.18;2.58;;;;;;;;;;5026762;28;20025;-85
2023/08/14 06:52:44;;;;;;;8.02;3.00;;;;;;;;;;5016786;28;20093;-86
2023/08/14 06:55:10;;;;;;;10.48;2.70;;;;;;;;;;5011770;28;20034;-83
2023/08/14 06:57:36;;;;;;;12.95;2.90;;;;;;;;;;5026838;28;20018;-87
2023/08/14 07:00:11;;;;;;;13.82;3.35;;;;;;;;;;5011930;28;20041;-84
2023/08/14 07:02:37;;;;;;;9.73;3.55;;;;;;;;;;5011005;28;20056;-85
2023/08/14 07:05:04;;;;;;;7.30;2.88;;;;;;;;;;5024789;28;20041;-89
2023/08/14 07:07:29;;;;;;;13.38;3.40;;;;;;;;;;5012262;28;20044;-83
2023/08/14 07:09:56;;;;;;;12.48;2.75;;;;;;;;;;5016058;28;20033;-87
2023/08/14 07:12:22;;;;;;;9.07;2.65;;;;;;;;;;5030341;28;20036;-90
2023/08/14 07:14:48;;;;;;;7.70;2.33;;;;;;;;;;5026004;28;20026;-85
2023/08/14 07:17:14;;;;;;;11.02;3.03;;;;;;;;;;5029351;28;20517;-82
2023/08/14 07:19:40;;;;;;;9.40;4.28;;;;;;;;;;5025189;28;20029;-88
2023/08/14 07:22:06;;;;;;;7.25;2.72;;;;;;;;;;5012540;28;20077;-83
2023/08/14 07:24:32;;;;;;;8.63;2.88;;;;;;;;;;5027518;28;20038;-89
2023/08/14 07:26:59;;;;;;;14.88;2.78;;;;;;;;;;5013052;28;20061;-88
2023/08/14 07:29:28;;;;;;;9.80;2.88;;;;;;;;;;5025190;28;20026;-90
2023/08/14 07:31:54;;;;;;;11.73;3.88;;;;;;;;;;5014185;28;20424;-87
2023/08/14 07:34:20;;;;;;;9.30;4.47;;;;;;;;;;5030015;28;20501;-91
2023/08/14 07:36:48;;;;;;;8.45;3.30;;;;;;;;;;5025528;28;20053;-87
2023/08/14 07:39:14;;;;;;;10.20;3.42;;;;;;;;;;5026253;28;20726;-89
2023/08/14 07:41:43;;;;;;;6.47;2.92;;;;;;;;;;5013635;28;20057;-86
2023/08/14 07:44:11;;;;;;;8.10;2.45;;;;;;;;;;5011928;28;20041;-89
2023/08/14 07:46:37;;;;;;;12.00;3.20;;;;;;;;;;5028966;28;20030;-84
2023/08/14 07:49:03;;;;;;;8.18;2.88;;;;;;;;;;5028231;28;20034;-89
2023/08/14 07:51:29;;;;;;;4.53;2.47;;;;;;;;;;5012309;28;20434;-87
2023/08/14 07:53:55;;;;;;;9.07;3.25;;;;;;;;;;5011287;28;20048;-87
2023/08/14 07:56:23;;;;;;;12.35;3.75;;;;;;;;;;5015057;28;20052;-87
2023/08/14 07:58:49;;;;;;;12.05;3.55;;;;;;;;;;5013344;28;20038;-83
2023/08/14 08:01:17;;;;;;;10.80;2.92;;;;;;;;;;5029965;28;20040;-86
2023/08/14 08:03:43;;;;;;;6.97;2.88;;;;;;;;;;5024168;28;20467;-88
2023/08/14 08:06:12;;;;;;;8.75;2.60;;;;;;;;;;5011925;28;20120;-88
2023/08/14 08:08:38;;;;;;;8.40;2.50;;;;;;;;;;5012653;28;20022;-87
2023/08/14 08:11:04;;;;;;;6.13;2.58;;;;;;;;;;5028308;28;22054;-87
2023/08/14 08:13:30;;;;;;;9.18;2.95;;;;;;;;;;5026505;28;20041;-87
2023/08/14 08:15:56;;;;;;;21.33;3.45;;;;;;;;;;5012556;28;20042;-84
2023/08/14 08:18:22;;;;;;;11.00;2.40;;;;;;;;;;5025795;28;20459;-88
2023/08/14 08:20:50;;;;;;;9.10;2.92;;;;;;;;;;5010611;28;20040;-83
2023/08/14 08:23:16;;;;;;;7.97;2.65;;;;;;;;;;5011463;28;20045;-88
2023/08/14 08:25:42;;;;;;;10.68;2.85;;;;;;;;;;5013143;28;20033;-81
2023/08/14 08:28:09;;;;;;;8.48;2.92;;;;;;;;;;5009567;28;20040;-86
2023/08/14 08:30:37;;;;;;;12.10;2.80;;;;;;;;;;5026993;28;21040;-85
2023/08/14 08:33:03;;;;;;;10.20;4.07;;;;;;;;;;5027368;28;20116;-84
2023/08/14 08:35:29;;;;;;;10.07;3.78;;;;;;;;;;5011248;28;20148;-84
2023/08/14 08:37:55;;;;;;;8.63;3.45;;;;;;;;;;5010692;28;20156;-86
2023/08/14 08:40:24;;;;;;;9.35;3.35;;;;;;;;;;5010659;28;20029;-82
2023/08/14 08:42:53;;;;;;;7.47;3.08;;;;;;;;;;5008203;28;20041;-83
2023/08/14 08:45:21;;;;;;;6.50;2.90;;;;;;;;;;5029392;28;20111;-80
2023/08/14 08:47:49;;;;;;;8.75;3.50;;;;;;;;;;5011318;28;20724;-85
2023/08/14 08:50:15;;;;;;;10.18;2.83;;;;;;;;;;5012997;28;20577;-84
2023/08/14 08:52:41;;;;;;;7.22;2.83;;;;;;;;;;5009809;28;20026;-85
2023/08/14 08:55:08;;;;;;;9.43;2.58;;;;;;;;;;5009086;28;20045;-82
2023/08/14 08:57:35;;;;;;;7.38;2.13;;;;;;;;;;5024806;28;20092;-84
2023/08/14 09:00:03;;;;;;;8.30;2.40;;;;;;;;;;5008891;28;20048;-81
2023/08/14 09:02:32;;;;;;;3.55;1.70;;;;;;;;;;5010769;28;20046;-85
2023/08/14 09:04:58;;;;;;;8.13;2.50;;;;;;;;;;5009505;28;20038;-85
2023/08/14 09:07:26;;;;;;;4.82;2.10;;;;;;;;;;5021536;28;20036;-90
2023/08/14 09:09:54;;;;;;;10.75;2.22;;;;;;;;;;5010385;28;20038;-85
2023/08/14 09:12:20;;;;;;;8.27;2.67;;;;;;;;;;5009278;28;20038;-86
2023/08/14 09:14:59;;;;;;;7.03;2.42;;;;;;;;;;5024964;28;20029;-83
2023/08/14 09:17:25;;;;;;;7.72;2.17;;;;;;;;;;5004384;28;20033;-84
2023/08/14 09:19:51;;;;;;;4.25;2.00;;;;;;;;;;5010147;28;20041;-83
2023/08/14 09:22:18;;;;;;;10.13;2.58;;;;;;;;;;5008265;28;20034;-82
2023/08/14 09:24:44;;;;;;;7.55;2.65;;;;;;;;;;5025865;28;20048;-84
2023/08/14 09:27:10;;;;;;;6.28;2.30;;;;;;;;;;5009475;28;21340;-85
2023/08/14 09:29:36;;;;;;;6.55;1.95;;;;;;;;;;5007594;28;20935;-80
2023/08/14 09:32:04;;;;;;;7.75;2.35;;;;;;;;;;5004638;28;20034;-81
2023/08/14 09:34:30;;;;;;;4.18;1.65;;;;;;;;;;5003990;28;20072;-80
2023/08/14 09:36:59;;;;;;;6.53;1.90;;;;;;;;;;5010415;28;20113;-84
2023/08/14 09:39:25;;;;;;;3.40;1.50;;;;;;;;;;5008893;28;20053;-87
2023/08/14 09:41:51;;;;;;;15.45;2.22;;;;;;;;;;5026551;28;20116;-84
2023/08/14 09:44:21;;;;;;;5.80;2.15;;;;;;;;;;5020241;28;20034;-85
2023/08/14 09:46:49;;;;;;;5.30;2.10;;;;;;;;;;5024978;28;20030;-87
2023/08/14 09:49:16;;;;;;;3.67;1.88;;;;;;;;;;5009195;28;20030;-85
2023/08/14 09:51:42;;;;;;;8.63;2.28;;;;;;;;;;5009072;28;20040;-81
2023/08/14 09:54:09;;;;;;;6.85;2.38;;;;;;;;;;5009386;28;20037;-86
2023/08/14 09:56:37;;;;;;;3.70;2.20;;;;;;;;;;5021170;28;20072;-87
2023/08/14 09:59:06;;;;;;;7.93;2.10;;;;;;;;;;5025060;28;20034;-80
2023/08/14 10:01:32;;;;;;;7.18;1.90;;;;;;;;;;5024773;28;20041;-89
2023/08/14 10:04:02;;;;;;;6.57;2.55;;;;;;;;;;5022010;28;20021;-86
2023/08/14 10:06:28;;;;;;;6.45;1.85;;;;;;;;;;5010307;28;20018;-83
2023/08/14 10:08:58;;;;;;;4.75;1.60;;;;;;;;;;5008964;28;20026;-84
2023/08/14 10:11:28;;;;;;;8.38;2.17;;;;;;;;;;5027142;28;20030;-88
2023/08/14 10:14:06;;;;;;;6.10;1.73;;;;;;;;;;5009277;28;20109;-87
2023/08/14 10:16:35;;;;;;;5.03;1.75;;;;;;;;;;5012460;28;20099;-86
2023/08/14 10:19:04;;;;;;;8.20;2.38;;;;;;;;;;5028822;28;20124;-83
2023/08/14 10:21:34;;;;;;;8.90;2.25;;;;;;;;;;5009225;28;20107;-88
2023/08/14 10:24:02;;;;;;;8.38;2.63;;;;;;;;;;5028801;28;20072;-81
2023/08/14 10:26:28;;;;;;;8.75;2.45;;;;;;;;;;5028842;28;20844;-86
2023/08/14 10:28:58;;;;;;;7.63;2.50;;;;;;;;;;5011863;28;20048;-87
2023/08/14 10:31:24;;;;;;;5.93;2.22;;;;;;;;;;5014694;28;20018;-86
2023/08/14 10:33:51;;;;;;;6.05;2.22;;;;;;;;;;5024511;28;20037;-82
2023/08/14 10:36:22;;;;;;;5.28;1.90;;;;;;;;;;5015220;28;20062;-85
2023/08/14 10:38:50;;;;;;;5.82;1.95;;;;;;;;;;5008508;28;20125;-85
2023/08/14 10:41:17;;;;;;;5.05;2.38;;;;;;;;;;5028712;28;20034;-89
2023/08/14 10:43:43;;;;;;;12.15;2.38;;;;;;;;;;5013151;28;20041;-87
2023/08/14 10:46:09;;;;;;;9.80;1.85;;;;;;;;;;5028860;28;20068;-84
2023/08/14 10:48:36;;;;;;;4.70;1.80;;;;;;;;;;5013295;28;20435;-86
2023/08/14 10:51:02;;;;;;;5.60;2.28;;;;;;;;;;5013107;28;20030;-84
2023/08/14 10:53:31;;;;;;;6.97;2.13;;;;;;;;;;5030430;28;20041;-86
2023/08/14 10:56:00;;;;;;;6.50;2.10;;;;;;;;;;5012094;28;20125;-83
2023/08/14 10:58:35;;;;;;;5.55;1.77;;;;;;;;;;5012280;28;20067;-86
2023/08/14 11:01:05;;;;;;;4.57;1.92;;;;;;;;;;5029037;28;20061;-87
2023/08/14 11:03:32;;;;;;;9.25;2.55;;;;;;;;;;5008767;28;20041;-84
2023/08/14 11:05:58;;;;;;;10.23;1.85;;;;;;;;;;5013584;28;20376;-89
2023/08/14 11:08:28;;;;;;;5.72;2.15;;;;;;;;;;5008184;28;20026;-83
2023/08/14 11:10:53;;;;;;;8.25;2.17;;;;;;;;;;5013209;28;20133;-87
2023/08/14 11:13:24;;;;;;;5.43;2.25;;;;;;;;;;5028359;28;20124;-88
2023/08/14 11:15:51;;;;;;;11.82;2.30;;;;;;;;;;5013681;28;20037;-88
2023/08/14 11:18:21;;;;;;;7.43;2.80;;;;;;;;;;5012531;28;20112;-90
2023/08/14 11:20:47;;;;;;;5.50;2.47;;;;;;;;;;5013204;28;21669;-86
2023/08/14 11:23:14;;;;;;;7.53;2.58;;;;;;;;;;5028482;28;20041;-83
2023/08/14 11:25:40;;;;;;;6.95;2.20;;;;;;;;;;5028077;28;20025;-84
2023/08/14 11:28:06;;;;;;;10.63;2.80;;;;;;;;;;5012404;28;20021;-88
2023/08/14 11:30:35;;;;;;;7.28;2.08;;;;;;;;;;5012832;28;20078;-85
2023/08/14 11:33:05;;;;;;;7.50;2.22;;;;;;;;;;5012836;28;20021;-84
2023/08/14 11:35:31;;;;;;;7.15;2.47;;;;;;;;;;5011233;28;20041;-85
2023/08/14 11:37:58;;;;;;;7.45;2.00;;;;;;;;;;5027850;28;20026;-88
2023/08/14 11:40:24;;;;;;;8.07;2.53;;;;;;;;;;5027804;28;20030;-89
2023/08/14 11:42:51;;;;;;;8.20;2.33;;;;;;;;;;5011776;28;20026;-84
2023/08/14 11:45:19;;;;;;;11.70;2.03;;;;;;;;;;5011041;28;20418;-84
2023/08/14 11:47:51;;;;;;;5.60;1.88;;;;;;;;;;5012810;28;20049;-89
2023/08/14 11:50:17;;;;;;;7.72;2.85;;;;;;;;;;5012586;28;20026;-85
2023/08/14 11:52:46;;;;;;;11.05;3.00;;;;;;;;;;5010745;28;20034;-88
2023/08/14 11:55:13;;;;;;;7.03;2.38;;;;;;;;;;5026796;28;20030;-83
2023/08/14 11:57:39;;;;;;;6.55;2.70;;;;;;;;;;5012522;28;20034;-85
2023/08/14 12:00:13;;;;;;;11.05;2.25;;;;;;;;;;5012023;28;20049;-84
2023/08/14 12:02:39;;;;;;;8.30;2.20;;;;;;;;;;5012506;28;20900;-85
2023/08/14 12:05:06;;;;;;;7.55;2.13;;;;;;;;;;5011433;28;20069;-86
2023/08/14 12:07:34;;;;;;;5.55;2.28;;;;;;;;;;5013287;28;20048;-85
2023/08/14 12:10:05;;;;;;;8.45;2.00;;;;;;;;;;5011576;28;20037;-82
2023/08/14 12:12:31;;;;;;;7.70;2.08;;;;;;;;;;5028138;28;20022;-89
2023/08/14 12:14:57;;;;;;;6.07;2.13;;;;;;;;;;5027363;28;20033;-84
2023/08/14 12:17:23;;;;;;;5.78;2.13;;;;;;;;;;5026691;28;20034;-89
2023/08/14 12:19:50;;;;;;;7.90;2.00;;;;;;;;;;5027983;28;20037;-86
2023/08/14 12:22:16;;;;;;;5.32;2.17;;;;;;;;;;5014135;28;20034;-82
2023/08/14 12:24:43;;;;;;;6.40;2.15;;;;;;;;;;5008236;28;20063;-87
2023/08/14 12:27:23;;;;;;;8.07;2.30;;;;;;;;;;5011189;28;20339;-85
2023/08/14 12:29:49;;;;;;;7.32;2.67;;;;;;;;;;5011041;28;20033;-84
2023/08/14 12:32:18;;;;;;;5.00;2.40;;;;;;;;;;5013312;28;20475;-85
2023/08/14 12:34:47;;;;;;;13.05;3.15;;;;;;;;;;5013906;28;20021;-86
2023/08/14 12:37:16;;;;;;;5.35;1.83;;;;;;;;;;5015024;28;20037;-84
2023/08/14 12:39:47;;;;;;;5.68;2.03;;;;;;;;;;5025960;28;20025;-87
2023/08/14 12:42:14;;;;;;;6.60;2.40;;;;;;;;;;5025441;28;20033;-84
2023/08/14 12:44:40;;;;;;;4.50;1.42;;;;;;;;;;5010319;28;20052;-87
2023/08/14 12:47:11;;;;;;;11.85;2.75;;;;;;;;;;5011725;28;20030;-87
2023/08/14 12:49:37;;;;;;;4.53;1.55;;;;;;;;;;5023154;28;20466;-84
2023/08/14 12:52:04;;;;;;;5.35;1.80;;;;;;;;;;5025646;28;20098;-85
2023/08/14 12:54:30;;;;;;;8.90;2.05;;;;;;;;;;5028783;28;20026;-88
2023/08/14 12:56:56;;;;;;;6.05;2.13;;;;;;;;;;5011093;28;20033;-84
2023/08/14 12:59:22;;;;;;;4.97;1.77;;;;;;;;;;5028341;28;20038;-86
2023/08/14 13:01:48;;;;;;;6.43;2.22;;;;;;;;;;5021834;28;20596;-88
2023/08/14 13:04:14;;;;;;;5.05;1.92;;;;;;;;;;5011616;28;20052;-84
2023/08/14 13:06:40;;;;;;;5.18;1.58;;;;;;;;;;5031382;28;20029;-86
2023/08/14 13:09:06;;;;;;;5.05;1.88;;;;;;;;;;5030565;28;20109;-89
2023/08/14 13:11:33;;;;;;;10.27;1.73;;;;;;;;;;5009937;28;20053;-85
2023/08/14 13:13:59;;;;;;;8.52;2.28;;;;;;;;;;5011058;28;20080;-87
2023/08/14 13:16:30;;;;;;;5.22;2.10;;;;;;;;;;5010948;28;20041;-84
2023/08/14 13:18:56;;;;;;;4.82;1.60;;;;;;;;;;5013696;28;20033;-88
2023/08/14 13:21:22;;;;;;;8.68;2.08;;;;;;;;;;5026142;28;20456;-87
2023/08/14 13:23:50;;;;;;;6.32;1.73;;;;;;;;;;5009412;28;20034;-86
2023/08/14 13:26:16;;;;;;;5.55;1.90;;;;;;;;;;5026755;28;20029;-84
2023/08/14 13:28:43;;;;;;;4.55;1.73;;;;;;;;;;5004608;28;20071;-84
2023/08/14 13:31:09;;;;;;;11.32;2.47;;;;;;;;;;5025159;28;20034;-85
2023/08/14 13:33:35;;;;;;;5.15;2.05;;;;;;;;;;5022029;28;20033;-86
2023/08/14 13:36:02;;;;;;;9.50;2.20;;;;;;;;;;5009933;28;20038;-87
2023/08/14 13:38:28;;;;;;;4.80;2.00;;;;;;;;;;5021335;28;20030;-85
2023/08/14 13:40:54;;;;;;;6.68;2.03;;;;;;;;;;5007974;28;20041;-84
2023/08/14 13:43:20;;;;;;;5.85;2.03;;;;;;;;;;5010252;28;20034;-88
2023/08/14 13:45:46;;;;;;;8.30;1.45;;;;;;;;;;5025442;28;20442;-84
2023/08/14 13:48:12;;;;;;;4.32;1.75;;;;;;;;;;5009361;28;20038;-83
2023/08/14 13:50:41;;;;;;;4.13;1.88;;;;;;;;;;5010718;28;20723;-88
2023/08/14 13:53:07;;;;;;;7.07;2.13;;;;;;;;;;5013591;28;20076;-86
2023/08/14 13:55:33;;;;;;;6.43;1.92;;;;;;;;;;5025545;28;20065;-86
2023/08/14 13:57:59;;;;;;;4.35;1.75;;;;;;;;;;5029897;28;20022;-85
2023/08/14 14:00:28;;;;;;;5.07;2.00;;;;;;;;;;5014326;28;20030;-85
2023/08/14 14:02:54;;;;;;;5.93;2.25;;;;;;;;;;5014872;28;20038;-88
2023/08/14 14:05:20;;;;;;;6.35;1.83;;;;;;;;;;5014767;28;20038;-86
2023/08/14 14:07:46;;;;;;;7.93;2.17;;;;;;;;;;5028778;28;20069;-87
2023/08/14 14:10:12;;;;;;;7.18;1.95;;;;;;;;;;5024773;28;20061;-87
2023/08/14 14:12:38;;;;;;;6.10;2.00;;;;;;;;;;5013168;28;20109;-85
2023/08/14 14:15:05;;;;;;;5.05;2.60;;;;;;;;;;5014124;28;20140;-86
2023/08/14 14:17:31;;;;;;;5.25;2.13;;;;;;;;;;5016434;28;20047;-87
2023/08/14 14:20:00;;;;;;;4.38;1.92;;;;;;;;;;5025567;28;20022;-84
2023/08/14 14:22:26;;;;;;;5.63;2.25;;;;;;;;;;5028555;28;20113;-86
2023/08/14 14:24:52;;;;;;;4.95;2.15;;;;;;;;;;5014554;28;20160;-86
2023/08/14 14:27:18;;;;;;;7.22;2.30;;;;;;;;;;5029892;28;20029;-83
2023/08/14 14:29:49;;;;;;;5.57;2.25;;;;;;;;;;5013000;28;20033;-84
2023/08/14 14:32:15;;;;;;;7.33;2.10;;;;;;;;;;5028344;28;20087;-84
2023/08/14 14:34:41;;;;;;;7.32;2.63;;;;;;;;;;5028379;28;20654;-88
2023/08/14 14:37:07;;;;;;;5.07;1.90;;;;;;;;;;5027927;28;20034;-87
2023/08/14 14:39:33;;;;;;;10.57;2.40;;;;;;;;;;5012646;28;20037;-86